Time;durP1;ratioP1;P1;durP2;ratioP2;P2;SDS_P1;SDS_P2;PMS_P1;PMS_P2;Temp;Humidity;BMP_temperature;BMP_pressure;BME280_temperature;BME280_humidity;BME280_pressure;Samples;Min_cycle;Max_cycle;Signal;HPM_P1;HPM_P2
2022/06/06 00:00:40;;;;;;;10.90;8.83;;;15.90;1.00;;;;;;5068696;28;20170;-70
2022/06/06 00:03:06;;;;;;;10.37;9.00;;;15.90;1.00;;;;;;5069547;28;20223;-70
2022/06/06 00:05:32;;;;;;;9.03;8.00;;;15.90;1.00;;;;;;5067228;28;20444;-70
2022/06/06 00:07:58;;;;;;;9.33;8.43;;;15.90;1.00;;;;;;5068662;28;20444;-72
2022/06/06 00:10:25;;;;;;;9.60;8.80;;;15.90;1.00;;;;;;5069087;28;20538;-70
2022/06/06 00:12:51;;;;;;;10.03;8.70;;;15.90;1.00;;;;;;5069872;28;20583;-70
2022/06/06 00:15:17;;;;;;;14.10;10.50;;;15.90;1.00;;;;;;5068009;28;20492;-70
2022/06/06 00:17:43;;;;;;;10.43;9.43;;;15.90;1.00;;;;;;5068587;28;20204;-69
2022/06/06 00:20:09;;;;;;;20.40;9.67;;;15.90;1.00;;;;;;5067809;28;20995;-71
2022/06/06 00:22:35;;;;;;;11.97;10.70;;;15.80;1.00;;;;;;5068407;28;20176;-70
2022/06/06 00:25:01;;;;;;;10.80;9.63;;;15.80;1.00;;;;;;5068690;28;20490;-70
2022/06/06 00:27:26;;;;;;;13.60;11.30;;;15.90;1.00;;;;;;5067165;28;20182;-70
2022/06/06 00:29:53;;;;;;;11.60;10.57;;;15.80;1.00;;;;;;5068418;28;20181;-70
2022/06/06 00:35:06;;;;;;;13.57;10.63;;;15.80;1.00;;;;;;5065578;28;20455;-70
2022/06/06 00:37:36;;;;;;;13.80;10.83;;;15.70;1.00;;;;;;5069835;28;20477;-70
2022/06/06 00:40:03;;;;;;;11.67;10.57;;;15.70;1.00;;;;;;5064950;28;21064;-70
2022/06/06 00:42:38;;;;;;;12.27;10.30;;;15.70;1.00;;;;;;5072034;28;20999;-72
2022/06/06 00:45:25;;;;;;;10.43;8.90;;;15.70;1.00;;;;;;5071679;28;21005;-69
2022/06/06 00:48:16;;;;;;;11.87;10.77;;;15.70;1.00;;;;;;5072420;28;20417;-70
2022/06/06 00:51:01;;;;;;;13.93;11.90;;;15.70;1.00;;;;;;5040184;28;20479;-70
2022/06/06 00:53:41;;;;;;;13.73;10.13;;;15.60;1.00;;;;;;5070643;28;20453;-70
2022/06/06 00:56:21;;;;;;;12.20;10.27;;;15.60;1.00;;;;;;5071447;28;20412;-70
2022/06/06 00:58:51;;;;;;;10.20;9.30;;;15.60;1.00;;;;;;5062435;28;20546;-70
2022/06/06 01:01:17;;;;;;;10.13;9.13;;;15.60;1.00;;;;;;5070740;28;21150;-71
2022/06/06 01:03:43;;;;;;;12.00;10.80;;;15.50;1.00;;;;;;5071996;28;20420;-70
2022/06/06 01:06:13;;;;;;;12.30;10.87;;;15.50;1.00;;;;;;5070830;28;20447;-71
2022/06/06 01:08:41;;;;;;;11.47;10.13;;;15.50;1.00;;;;;;5068636;28;20451;-71
2022/06/06 01:11:07;;;;;;;13.10;10.57;;;15.50;1.00;;;;;;5071495;28;20420;-71
2022/06/06 01:13:34;;;;;;;11.97;10.73;;;15.50;1.00;;;;;;5071559;28;20737;-69
2022/06/06 01:16:02;;;;;;;10.63;9.60;;;15.40;1.00;;;;;;5068056;28;20459;-70
2022/06/06 01:19:07;;;;;;;14.30;10.73;;;15.40;1.00;;;;;;5071025;28;20412;-70
2022/06/06 01:22:00;;;;;;;10.80;9.80;;;15.40;1.00;;;;;;5072670;28;20413;-70
2022/06/06 01:24:39;;;;;;;13.50;10.50;;;15.40;1.00;;;;;;5082061;28;20490;-70
2022/06/06 01:27:33;;;;;;;11.40;10.30;;;15.30;1.00;;;;;;5086457;28;20428;-69
2022/06/06 01:30:09;;;;;;;11.17;10.07;;;15.30;1.00;;;;;;5089539;28;20440;-68
2022/06/06 01:32:40;;;;;;;14.80;11.63;;;15.30;1.00;;;;;;5080888;28;20459;-70
2022/06/06 01:35:08;;;;;;;14.07;10.77;;;15.30;1.00;;;;;;5083661;28;20459;-72
2022/06/06 01:37:42;;;;;;;13.97;12.10;;;15.30;1.00;;;;;;5083034;28;20412;-69
2022/06/06 01:40:11;;;;;;;11.40;10.40;;;15.30;1.00;;;;;;5084645;28;20476;-70
2022/06/06 01:42:57;;;;;;;13.00;10.90;;;15.30;1.00;;;;;;5088163;28;20412;-70
2022/06/06 01:45:49;;;;;;;12.27;11.13;;;15.30;1.00;;;;;;5087131;28;20460;-69
2022/06/06 01:48:23;;;;;;;11.43;10.30;;;15.20;1.00;;;;;;5070168;28;20448;-69
2022/06/06 01:50:50;;;;;;;12.80;10.87;;;15.20;1.00;;;;;;5070714;28;20508;-69
2022/06/06 01:53:22;;;;;;;11.97;10.80;;;15.20;1.00;;;;;;5070889;28;20448;-69
2022/06/06 01:55:50;;;;;;;12.03;10.77;;;15.20;1.00;;;;;;5071037;28;20428;-69
2022/06/06 01:58:16;;;;;;;14.10;10.07;;;15.10;1.00;;;;;;5069684;28;20770;-69
2022/06/06 02:00:41;;;;;;;11.73;10.53;;;15.20;1.00;;;;;;5069737;28;20518;-69
2022/06/06 02:03:08;;;;;;;11.30;10.20;;;15.20;1.00;;;;;;5070478;28;20231;-70
2022/06/06 02:05:34;;;;;;;12.80;10.50;;;15.20;1.00;;;;;;5068955;28;20194;-69
2022/06/06 02:08:00;;;;;;;14.17;12.50;;;15.10;1.00;;;;;;5069750;28;20486;-69
2022/06/06 02:10:26;;;;;;;12.83;11.23;;;15.10;1.00;;;;;;5070455;28;20455;-71
2022/06/06 02:12:53;;;;;;;12.47;11.27;;;15.10;1.00;;;;;;5074067;28;20201;-70
2022/06/06 02:15:25;;;;;;;12.43;11.23;;;15.00;1.00;;;;;;5073396;28;20464;-69
2022/06/06 02:17:52;;;;;;;12.47;11.13;;;15.00;1.00;;;;;;5066367;28;20420;-70
2022/06/06 02:20:21;;;;;;;12.23;10.60;;;14.90;1.00;;;;;;5071323;28;20793;-70
2022/06/06 02:22:47;;;;;;;12.20;10.90;;;15.00;1.00;;;;;;5071877;28;20413;-68
2022/06/06 02:25:14;;;;;;;11.50;10.27;;;15.10;1.00;;;;;;5072019;28;20459;-69
2022/06/06 02:27:41;;;;;;;13.60;12.20;;;15.10;1.00;;;;;;5069985;28;20170;-69
2022/06/06 02:30:11;;;;;;;12.87;10.87;;;15.00;1.00;;;;;;5071424;28;20423;-69
2022/06/06 02:32:36;;;;;;;11.87;10.77;;;14.90;1.00;;;;;;5070037;28;20448;-69
2022/06/06 02:35:02;;;;;;;11.33;10.23;;;15.00;1.00;;;;;;5071172;28;20448;-69
2022/06/06 02:37:28;;;;;;;16.53;11.33;;;14.80;1.00;;;;;;5070208;28;20174;-69
2022/06/06 02:39:54;;;;;;;11.60;10.07;;;14.80;1.00;;;;;;5070362;28;20420;-69
2022/06/06 02:42:20;;;;;;;14.17;11.23;;;14.70;1.00;;;;;;5071095;28;20190;-69
2022/06/06 02:44:46;;;;;;;17.17;9.23;;;14.70;1.00;;;;;;5071093;28;20277;-70
2022/06/06 02:47:12;;;;;;;10.60;9.53;;;14.80;1.00;;;;;;5070865;28;20878;-70
2022/06/06 02:49:38;;;;;;;12.60;10.60;;;14.80;1.00;;;;;;5070831;28;20207;-69
2022/06/06 02:52:05;;;;;;;10.67;9.77;;;14.80;1.00;;;;;;5070927;28;20463;-69
2022/06/06 02:54:31;;;;;;;15.50;11.03;;;14.80;1.00;;;;;;5069848;28;20209;-69
2022/06/06 02:56:58;;;;;;;13.33;10.80;;;14.80;1.00;;;;;;5070586;28;20470;-69
2022/06/06 02:59:26;;;;;;;11.77;10.00;;;14.80;1.00;;;;;;5070187;28;20174;-68
2022/06/06 03:01:52;;;;;;;11.63;10.10;;;14.80;1.00;;;;;;5071004;28;20413;-69
2022/06/06 03:04:19;;;;;;;10.57;9.50;;;14.80;1.00;;;;;;5070479;28;20455;-69
2022/06/06 03:07:11;;;;;;;11.53;10.33;;;14.90;1.00;;;;;;5069506;28;20583;-70
2022/06/06 03:10:24;;;;;;;13.87;10.70;;;14.90;1.00;;;;;;5069987;28;21047;-70
2022/06/06 03:13:02;;;;;;;11.27;10.17;;;14.90;1.00;;;;;;5068186;28;20452;-70
2022/06/06 03:22:19;;;;;;;12.70;10.80;;;14.70;1.00;;;;;;5068696;28;20966;-70
2022/06/06 03:24:47;;;;;;;12.87;11.57;;;14.60;1.00;;;;;;5067586;28;20440;-70
2022/06/06 03:27:48;;;;;;;13.40;12.10;;;14.50;1.00;;;;;;5068148;28;20417;-70
2022/06/06 03:30:36;;;;;;;11.93;10.73;;;14.40;1.00;;;;;;5042516;28;20444;-70
2022/06/06 03:33:27;;;;;;;13.80;11.90;;;14.40;1.00;;;;;;5066945;28;20484;-69
2022/06/06 03:36:28;;;;;;;13.50;12.10;;;14.40;1.00;;;;;;5065038;28;20506;-69
2022/06/06 03:39:12;;;;;;;15.47;13.40;;;14.60;1.00;;;;;;5057580;28;20857;-69
2022/06/06 03:41:52;;;;;;;13.63;11.40;;;14.70;1.00;;;;;;5068842;28;20400;-69
2022/06/06 03:44:47;;;;;;;13.10;11.23;;;14.80;1.00;;;;;;5067690;28;20436;-69
2022/06/06 03:47:27;;;;;;;9.60;8.70;;;15.00;1.00;;;;;;5064362;28;20417;-69
2022/06/06 03:50:30;;;;;;;10.70;9.80;;;15.20;1.00;;;;;;5060898;28;20465;-69
2022/06/06 03:53:00;;;;;;;9.13;8.30;;;15.30;1.00;;;;;;5062188;28;20929;-70
2022/06/06 03:55:56;;;;;;;9.60;8.60;;;15.50;1.00;;;;;;5067869;28;20436;-69
2022/06/06 03:58:24;;;;;;;13.47;8.80;;;15.80;1.00;;;;;;5067271;28;20737;-69
2022/06/06 04:00:51;;;;;;;17.80;8.60;;;15.90;1.00;;;;;;5066927;28;20417;-69
2022/06/06 04:03:17;;;;;;;10.00;8.87;;;16.00;1.00;;;;;;5067476;28;20482;-70
2022/06/06 04:05:44;;;;;;;8.20;7.50;;;16.10;1.00;;;;;;5067165;28;21254;-70
2022/06/06 04:08:10;;;;;;;10.00;7.73;;;16.30;1.00;;;;;;5066962;28;20463;-69
2022/06/06 04:10:53;;;;;;;8.37;7.60;;;16.70;1.00;;;;;;5067871;28;20512;-70
2022/06/06 04:13:40;;;;;;;7.77;6.70;;;17.00;1.00;;;;;;5066720;28;20186;-69
2022/06/06 04:16:31;;;;;;;10.73;8.00;;;17.20;1.00;;;;;;5067267;28;20404;-69
2022/06/06 04:19:05;;;;;;;8.77;7.87;;;17.40;99.90;;;;;;5066435;28;20978;-69
2022/06/06 04:21:58;;;;;;;8.07;7.30;;;17.60;62.40;;;;;;5071844;28;20464;-69
2022/06/06 04:25:02;;;;;;;19.30;7.43;;;17.40;1.00;;;;;;5081115;28;20498;-69
2022/06/06 04:27:33;;;;;;;8.70;7.87;;;17.40;99.90;;;;;;5082041;28;20428;-69
2022/06/06 04:30:06;;;;;;;9.43;7.20;;;17.80;1.00;;;;;;5082134;28;20469;-69
2022/06/06 04:33:07;;;;;;;7.83;7.13;;;18.30;1.00;;;;;;5082177;28;20460;-69
2022/06/06 04:35:44;;;;;;;8.83;6.53;;;18.50;99.90;;;;;;5081051;28;20455;-69
2022/06/06 04:38:39;;;;;;;12.37;7.53;;;18.60;1.00;;;;;;5081912;28;20412;-69
2022/06/06 04:41:26;;;;;;;7.30;6.70;;;18.50;1.00;;;;;;5079005;28;20408;-69
2022/06/06 04:44:32;;;;;;;7.43;6.77;;;18.60;99.90;;;;;;5079634;28;20454;-69
2022/06/06 04:47:21;;;;;;;17.87;8.10;;;18.90;1.00;;;;;;5083386;28;20928;-69
2022/06/06 04:49:48;;;;;;;8.63;6.80;;;19.20;1.00;;;;;;5083321;28;20404;-68
2022/06/06 04:52:16;;;;;;;8.73;6.30;;;19.50;1.00;;;;;;5071691;28;20424;-69
2022/06/06 04:54:44;;;;;;;11.00;6.90;;;19.30;1.00;;;;;;5070218;28;20451;-69
2022/06/06 04:57:13;;;;;;;7.60;6.20;;;19.70;98.20;;;;;;5071239;28;20482;-69
2022/06/06 04:59:40;;;;;;;7.07;5.90;;;20.10;99.90;;;;;;5070251;28;20408;-69
2022/06/06 05:02:06;;;;;;;11.03;6.77;;;20.70;99.90;;;;;;5070838;28;20428;-69
2022/06/06 05:04:33;;;;;;;6.93;6.33;;;21.30;1.00;;;;;;5067477;28;20505;-66
2022/06/06 05:07:17;;;;;;;6.70;6.10;;;21.80;1.00;;;;;;5066236;28;20914;-66
2022/06/06 05:10:16;;;;;;;6.40;5.77;;;22.10;1.00;;;;;;5069510;28;20492;-66
2022/06/06 05:13:03;;;;;;;6.67;6.07;;;22.50;1.00;;;;;;5068873;28;20440;-66
2022/06/06 05:15:44;;;;;;;8.17;6.20;;;22.90;1.00;;;;;;5069561;28;20440;-66
2022/06/06 05:18:27;;;;;;;13.27;6.07;;;23.30;1.00;;;;;;5069889;28;20412;-67
2022/06/06 05:21:21;;;;;;;7.80;6.20;;;23.70;99.90;;;;;;5065629;28;20421;-66
2022/06/06 05:24:29;;;;;;;10.60;6.57;;;23.70;99.90;;;;;;5070315;28;20474;-67
2022/06/06 05:27:04;;;;;;;8.83;6.10;;;23.80;99.90;;;;;;5054845;28;20448;-66
2022/06/06 05:29:35;;;;;;;6.30;5.60;;;24.10;99.90;;;;;;5069672;28;20461;-66
2022/06/06 05:32:37;;;;;;;7.00;5.80;;;24.00;99.90;;;;;;5069907;28;20416;-66
2022/06/06 05:35:45;;;;;;;7.53;5.00;;;23.90;99.90;;;;;;5065327;28;20468;-66
2022/06/06 05:38:36;;;;;;;6.23;5.27;;;24.00;99.90;;;;;;5069014;28;21088;-66
2022/06/06 05:41:01;;;;;;;6.17;5.57;;;23.60;99.90;;;;;;5067657;28;20412;-66
2022/06/06 05:43:40;;;;;;;8.07;5.80;;;23.50;99.90;;;;;;5070621;28;20893;-66
2022/06/06 05:46:30;;;;;;;7.33;6.73;;;23.00;99.90;;;;;;5067804;28;20174;-66
2022/06/06 05:49:10;;;;;;;8.37;6.30;;;22.40;99.90;;;;;;5069271;28;20416;-66
2022/06/06 05:52:03;;;;;;;7.60;6.90;;;21.70;99.90;;;;;;5057883;28;20491;-66
2022/06/06 05:54:41;;;;;;;9.30;7.07;;;21.40;99.90;;;;;;5069139;28;20668;-67
2022/06/06 05:57:41;;;;;;;8.00;7.20;;;21.20;99.90;;;;;;5069378;28;20452;-67
2022/06/06 06:00:21;;;;;;;7.20;6.40;;;21.00;99.90;;;;;;5067643;28;20761;-66
2022/06/06 06:02:53;;;;;;;7.43;6.73;;;21.10;99.90;;;;;;5069360;28;20529;-66
2022/06/06 06:05:25;;;;;;;7.30;6.60;;;20.80;1.00;;;;;;5070931;28;20456;-66
2022/06/06 06:08:41;;;;;;;6.40;5.80;;;21.10;1.00;;;;;;5062612;28;20429;-67
2022/06/06 06:11:58;;;;;;;8.63;5.53;;;21.90;1.00;;;;;;5067775;28;20550;-66
2022/06/06 06:14:42;;;;;;;6.40;4.63;;;23.70;99.90;;;;;;5057019;28;20476;-66
2022/06/06 06:17:11;;;;;;;5.83;5.33;;;24.90;99.90;;;;;;5060798;28;20421;-68
2022/06/06 06:19:47;;;;;;;7.53;5.30;;;25.80;99.90;;;;;;5060676;28;20503;-68
2022/06/06 06:22:13;;;;;;;6.07;5.47;;;26.80;99.90;;;;;;5068678;28;20880;-68
2022/06/06 06:24:42;;;;;;;6.70;6.10;;;26.60;99.90;;;;;;5068828;28;20432;-67
2022/06/06 06:27:08;;;;;;;5.80;5.30;;;26.00;99.90;;;;;;5068786;28;20455;-67
2022/06/06 06:29:34;;;;;;;6.43;5.83;;;26.00;99.90;;;;;;5067882;28;20597;-67
2022/06/06 06:32:21;;;;;;;7.80;5.83;;;25.60;99.90;;;;;;5068865;28;20606;-67
2022/06/06 06:37:33;;;;;;;6.90;6.30;;;24.20;99.90;;;;;;5045925;28;20465;-68
2022/06/06 06:40:12;;;;;;;7.10;6.47;;;23.60;99.90;;;;;;5043974;28;20718;-70
2022/06/06 06:42:54;;;;;;;7.97;7.37;;;23.60;99.90;;;;;;5048825;28;20893;-70
2022/06/06 06:45:28;;;;;;;12.60;7.33;;;23.10;99.90;;;;;;5051767;28;20573;-70
2022/06/06 06:48:20;;;;;;;7.37;6.70;;;22.30;99.90;;;;;;5050673;28;20449;-69
2022/06/06 06:51:14;;;;;;;8.07;6.73;;;21.80;99.90;;;;;;5049264;28;20421;-75
2022/06/06 06:53:43;;;;;;;15.00;7.97;;;21.40;99.90;;;;;;5031244;28;20458;-73
2022/06/06 06:56:15;;;;;;;15.00;7.47;;;21.00;99.90;;;;;;5042245;28;20430;-74
2022/06/06 06:59:12;;;;;;;7.93;7.23;;;21.50;99.90;;;;;;5043045;28;20413;-73
2022/06/06 07:08:33;;;;;;;7.10;6.50;;;23.70;99.90;;;;;;5043366;28;20832;-75
2022/06/06 07:11:09;;;;;;;7.27;6.57;;;24.20;99.90;;;;;;5044523;28;21945;-74
2022/06/06 07:14:13;;;;;;;7.17;5.73;;;23.80;99.90;;;;;;5029364;28;20453;-75
2022/06/06 07:16:40;;;;;;;10.00;5.90;;;23.60;99.90;;;;;;5013455;28;20456;-73
2022/06/06 07:19:09;;;;;;;6.43;5.83;;;24.00;99.90;;;;;;5043146;28;20480;-75
2022/06/06 07:21:37;;;;;;;7.00;6.37;;;24.90;99.90;;;;;;5050167;28;20417;-75
2022/06/06 07:24:08;;;;;;;10.23;6.20;;;25.40;99.90;;;;;;5046507;28;20446;-75
2022/06/06 07:26:38;;;;;;;10.00;5.83;;;26.20;99.90;;;;;;5046367;28;20456;-73
2022/06/06 07:29:06;;;;;;;5.83;5.33;;;27.30;99.90;;;;;;5047907;28;20444;-74
2022/06/06 07:32:01;;;;;;;7.50;5.97;;;26.90;99.90;;;;;;5053925;28;20443;-74
2022/06/06 07:34:52;;;;;;;5.93;5.43;;;27.70;99.90;;;;;;5050665;28;20457;-75
2022/06/06 07:38:03;;;;;;;6.17;5.57;;;27.90;99.90;;;;;;5053514;28;20413;-75
2022/06/06 07:40:46;;;;;;;7.30;6.10;;;27.50;99.90;;;;;;5052623;28;21104;-74
2022/06/06 07:43:49;;;;;;;7.77;6.43;;;27.90;99.90;;;;;;5054930;28;20696;-73
2022/06/06 07:46:38;;;;;;;6.80;6.20;;;27.30;99.90;;;;;;5061156;28;20429;-75
2022/06/06 07:49:22;;;;;;;6.40;5.90;;;27.50;99.90;;;;;;5055422;28;20421;-74
2022/06/06 07:52:07;;;;;;;10.17;5.57;;;28.10;99.90;;;;;;5065980;28;20428;-73
2022/06/06 07:54:56;;;;;;;7.87;5.50;;;29.30;99.90;;;;;;5065529;28;20479;-74
2022/06/06 07:57:34;;;;;;;6.53;6.03;;;29.30;99.90;;;;;;5055859;28;20453;-76
2022/06/06 08:00:09;;;;;;;5.83;5.30;;;28.70;99.90;;;;;;5057598;28;20412;-75
2022/06/06 08:02:47;;;;;;;5.27;4.77;;;28.30;99.90;;;;;;5037340;28;20413;-75
2022/06/06 08:05:50;;;;;;;5.70;5.27;;;28.20;99.90;;;;;;5054946;28;20774;-76
2022/06/06 08:08:41;;;;;;;6.90;5.43;;;28.60;99.90;;;;;;5055046;28;20490;-75
2022/06/06 08:11:19;;;;;;;7.07;5.10;;;30.80;99.90;;;;;;5057146;28;20450;-74
2022/06/06 08:13:44;;;;;;;5.10;4.60;;;30.90;99.90;;;;;;5055674;28;20452;-75
2022/06/06 08:16:15;;;;;;;6.17;5.67;;;30.90;99.90;;;;;;5051940;28;20497;-74
2022/06/06 08:18:55;;;;;;;8.80;5.70;;;29.30;99.90;;;;;;5052132;28;20224;-74
2022/06/06 08:21:33;;;;;;;8.73;5.13;;;29.70;99.90;;;;;;5052203;28;20420;-73
2022/06/06 08:24:03;;;;;;;6.60;5.90;;;30.00;99.90;;;;;;5047006;28;20413;-74
2022/06/06 08:26:32;;;;;;;8.13;5.03;;;30.10;99.90;;;;;;5053100;28;20541;-73
2022/06/06 08:29:00;;;;;;;5.77;4.77;;;30.50;99.90;;;;;;5051819;28;20413;-73
2022/06/06 08:31:26;;;;;;;6.37;5.80;;;29.30;99.90;;;;;;5052851;28;20511;-74
2022/06/06 08:33:51;;;;;;;5.67;5.10;;;28.50;99.90;;;;;;5046326;28;20460;-74
2022/06/06 08:36:40;;;;;;;4.80;4.40;;;28.10;99.90;;;;;;5057118;28;20713;-74
2022/06/06 08:39:24;;;;;;;10.13;5.10;;;28.00;99.90;;;;;;5047203;28;20265;-75
2022/06/06 08:42:08;;;;;;;5.67;4.53;;;30.00;99.90;;;;;;5051196;28;20416;-74
2022/06/06 08:44:59;;;;;;;5.20;4.40;;;31.90;99.90;;;;;;5053141;28;21008;-75
2022/06/06 08:47:48;;;;;;;6.93;5.03;;;32.70;99.90;;;;;;5049321;28;20420;-75
2022/06/06 08:50:44;;;;;;;5.80;4.63;;;32.10;99.90;;;;;;5049869;28;20448;-74
2022/06/06 08:53:48;;;;;;;22.70;4.97;;;31.40;99.90;;;;;;5049674;28;20452;-76
2022/06/06 08:56:36;;;;;;;6.50;4.27;;;31.60;99.90;;;;;;5049309;28;20523;-75
2022/06/06 08:59:16;;;;;;;10.17;3.43;;;33.20;99.90;;;;;;5054257;28;20413;-74
2022/06/06 09:02:19;;;;;;;4.77;3.37;;;34.80;99.90;;;;;;5046875;28;20159;-74
2022/06/06 09:04:56;;;;;;;7.20;4.78;;;35.70;98.30;;;;;;5054048;28;20726;-75
2022/06/06 09:07:34;;;;;;;4.32;4.03;;;36.00;93.30;;;;;;5053454;28;20205;-75
2022/06/06 09:10:12;;;;;;;9.90;4.23;;;35.10;90.00;;;;;;5046725;28;20310;-75
2022/06/06 09:12:50;;;;;;;15.47;4.50;;;33.00;82.40;;;;;;5053183;28;20166;-74
2022/06/06 09:15:49;;;;;;;4.67;4.27;;;30.40;79.60;;;;;;5051873;28;20213;-74
2022/06/06 09:18:55;;;;;;;19.03;5.40;;;29.60;83.80;;;;;;5051582;28;20405;-75
2022/06/06 09:21:55;;;;;;;5.30;4.23;;;29.20;88.90;;;;;;5016771;28;20470;-76
2022/06/06 09:24:54;;;;;;;5.07;4.07;;;29.40;88.40;;;;;;5052661;28;20421;-75
2022/06/06 09:27:55;;;;;;;10.13;4.40;;;29.20;88.60;;;;;;5008690;28;20428;-79
2022/06/06 09:31:08;;;;;;;3.93;3.33;;;28.70;88.10;;;;;;5053275;28;20417;-76
2022/06/06 09:34:11;;;;;;;16.80;5.57;;;28.70;90.70;;;;;;4974038;28;20456;-78
2022/06/06 09:36:46;;;;;;;7.77;3.03;;;28.50;90.00;;;;;;4974080;28;20489;-78
2022/06/06 09:39:39;;;;;;;11.57;3.50;;;27.90;83.60;;;;;;5029502;28;20507;-76
2022/06/06 09:42:23;;;;;;;8.33;3.70;;;27.70;79.50;;;;;;5035082;28;20402;-77
2022/06/06 09:45:09;;;;;;;5.03;3.70;;;27.40;79.50;;;;;;5051624;28;20409;-76
2022/06/06 09:47:53;;;;;;;4.40;3.27;;;27.40;78.10;;;;;;5051416;28;20459;-75
2022/06/06 09:50:42;;;;;;;3.57;3.23;;;27.50;77.00;;;;;;5050689;28;21024;-77
2022/06/06 09:53:29;;;;;;;28.50;5.77;;;27.80;79.20;;;;;;5046915;28;20456;-76
2022/06/06 09:59:38;;;;;;;3.20;2.90;;;28.80;78.60;;;;;;5051925;28;20986;-77
2022/06/06 10:02:18;;;;;;;5.50;3.47;;;28.60;76.90;;;;;;5047084;28;20819;-78
2022/06/06 10:05:11;;;;;;;22.37;4.63;;;28.70;77.30;;;;;;5033024;28;20465;-77
2022/06/06 10:08:04;;;;;;;3.90;3.40;;;28.90;93.60;;;;;;5034658;28;20416;-78
2022/06/06 10:10:51;;;;;;;3.53;3.23;;;29.50;82.20;;;;;;5037090;28;20451;-78
2022/06/06 10:13:25;;;;;;;6.23;3.27;;;30.50;80.00;;;;;;5053705;28;20517;-80
2022/06/06 10:16:27;;;;;;;18.13;5.73;;;31.00;75.70;;;;;;5047285;28;20461;-78
2022/06/06 10:18:58;;;;;;;4.27;3.40;;;30.70;71.60;;;;;;5046700;28;20536;-77
2022/06/06 10:21:36;;;;;;;5.83;3.70;;;30.00;68.80;;;;;;5056151;28;20441;-79
2022/06/06 10:24:11;;;;;;;9.60;4.80;;;29.30;67.40;;;;;;5036805;28;20447;-78
2022/06/06 10:26:48;;;;;;;5.93;3.60;;;29.00;69.60;;;;;;5053606;28;20444;-74
2022/06/06 10:29:25;;;;;;;3.93;3.53;;;29.10;72.20;;;;;;5049375;28;20507;-73
2022/06/06 10:32:00;;;;;;;4.53;4.13;;;28.70;72.00;;;;;;5050402;28;20409;-74
2022/06/06 10:34:46;;;;;;;5.50;3.40;;;28.40;76.30;;;;;;5049831;28;20463;-74
2022/06/06 10:37:48;;;;;;;5.47;3.40;;;30.40;78.90;;;;;;5049308;28;20477;-74
2022/06/06 10:40:41;;;;;;;4.20;3.67;;;30.60;73.10;;;;;;5046952;28;20490;-74
2022/06/06 10:43:28;;;;;;;5.80;4.00;;;32.20;73.00;;;;;;5055470;28;20417;-74
2022/06/06 10:46:01;;;;;;;6.40;3.87;;;33.70;68.50;;;;;;5048808;28;20752;-73
2022/06/06 10:48:36;;;;;;;4.10;3.70;;;34.60;59.90;;;;;;5048856;28;20412;-73
2022/06/06 10:51:41;;;;;;;3.30;3.00;;;34.60;54.60;;;;;;5044033;28;20178;-74
2022/06/06 10:54:49;;;;;;;13.93;3.83;;;34.70;49.50;;;;;;5044539;28;20198;-74
2022/06/06 10:57:20;;;;;;;6.20;3.60;;;34.80;45.90;;;;;;4995836;28;20368;-73
2022/06/06 11:00:16;;;;;;;6.95;3.22;;;35.20;42.60;;;;;;5046241;28;20501;-73
2022/06/06 11:03:14;;;;;;;4.87;2.50;;;35.30;38.30;;;;;;5043075;28;20181;-74
2022/06/06 11:05:51;;;;;;;3.50;2.80;;;34.50;32.50;;;;;;5003639;28;20578;-74
2022/06/06 11:08:25;;;;;;;2.70;2.50;;;34.50;28.30;;;;;;5048005;28;20641;-75
2022/06/06 11:11:13;;;;;;;3.50;2.57;;;33.50;25.00;;;;;;5048693;28;20188;-73
2022/06/06 11:14:13;;;;;;;4.43;2.90;;;32.60;22.20;;;;;;5048742;28;20190;-74
2022/06/06 11:16:54;;;;;;;9.37;2.57;;;33.10;22.10;;;;;;5030270;28;20686;-76
2022/06/06 11:19:31;;;;;;;2.60;2.40;;;34.00;21.60;;;;;;5047926;28;20607;-73
2022/06/06 11:22:25;;;;;;;2.70;2.37;;;33.90;19.20;;;;;;5042693;28;20176;-74
2022/06/06 11:25:13;;;;;;;5.57;3.10;;;33.10;16.80;;;;;;5047870;28;20215;-74
2022/06/06 11:28:01;;;;;;;6.17;2.60;;;32.50;15.20;;;;;;5047850;28;20178;-74
2022/06/06 11:30:39;;;;;;;2.70;2.33;;;30.80;13.20;;;;;;5048551;28;20625;-73
2022/06/06 11:33:39;;;;;;;3.93;3.17;;;29.80;14.00;;;;;;5050240;28;20452;-74
2022/06/06 11:36:15;;;;;;;4.47;2.60;;;29.70;15.90;;;;;;5042081;28;20467;-73
2022/06/06 11:38:41;;;;;;;3.40;3.07;;;30.00;17.90;;;;;;5047597;28;20523;-74
2022/06/06 11:41:29;;;;;;;4.33;3.10;;;30.10;19.70;;;;;;5043256;28;20508;-74
2022/06/06 11:44:08;;;;;;;3.40;2.87;;;30.10;21.20;;;;;;5042595;28;20480;-74
2022/06/06 11:46:55;;;;;;;4.10;2.97;;;29.80;21.80;;;;;;5038958;28;20538;-73
2022/06/06 11:50:00;;;;;;;4.73;3.23;;;29.90;22.50;;;;;;5047906;28;20421;-73
2022/06/06 11:52:56;;;;;;;3.47;2.60;;;29.80;23.60;;;;;;5044412;28;20431;-73
2022/06/06 11:55:50;;;;;;;5.13;3.17;;;29.80;24.00;;;;;;5048104;28;20890;-74
2022/06/06 11:58:53;;;;;;;7.53;2.93;;;29.40;24.10;;;;;;5046420;28;20433;-73
2022/06/06 12:01:56;;;;;;;5.33;2.87;;;29.70;26.00;;;;;;4962632;28;20432;-72
2022/06/06 12:04:56;;;;;;;4.13;3.00;;;29.30;24.50;;;;;;4967328;28;20494;-73
2022/06/06 12:07:49;;;;;;;8.00;2.43;;;28.80;25.00;;;;;;5043676;28;20448;-74
2022/06/06 12:10:30;;;;;;;5.43;3.90;;;28.40;24.40;;;;;;5028933;28;20413;-74
2022/06/06 12:13:05;;;;;;;5.60;2.93;;;28.10;25.60;;;;;;5046418;28;20551;-74
2022/06/06 12:16:12;;;;;;;2.90;2.67;;;28.50;25.70;;;;;;5042467;28;20427;-73
2022/06/06 12:19:09;;;;;;;5.03;2.80;;;28.50;25.70;;;;;;5043313;28;20465;-73
2022/06/06 12:22:12;;;;;;;18.33;3.63;;;28.70;26.40;;;;;;5042639;28;21089;-73
2022/06/06 12:24:59;;;;;;;2.90;2.63;;;28.70;27.20;;;;;;5029974;28;20420;-74
2022/06/06 12:27:46;;;;;;;13.73;3.20;;;29.10;28.00;;;;;;5041352;28;20490;-74
2022/06/06 12:30:14;;;;;;;6.10;2.50;;;29.30;27.60;;;;;;5047414;28;20498;-74
2022/06/06 12:33:05;;;;;;;7.83;3.00;;;29.20;28.10;;;;;;5047820;28;20515;-72
2022/06/06 12:35:52;;;;;;;3.37;2.70;;;29.40;28.60;;;;;;5042226;28;20463;-77
2022/06/06 12:38:42;;;;;;;7.13;3.03;;;29.50;27.90;;;;;;5067227;22;20438;-69
2022/06/06 12:41:40;;;;;;;7.90;3.53;;;29.40;27.60;;;;;;5093776;28;20415;-69
2022/06/06 12:44:35;;;;;;;23.93;3.50;;;29.60;27.70;;;;;;5093476;28;20410;-69
2022/06/06 12:47:13;;;;;;;3.00;2.73;;;29.90;27.60;;;;;;5091988;28;20433;-69
2022/06/06 12:50:04;;;;;;;2.60;2.40;;;30.20;26.70;;;;;;5105811;28;20429;-68
2022/06/06 12:52:38;;;;;;;14.47;2.87;;;30.50;26.30;;;;;;5106276;28;20414;-69
2022/06/06 12:55:55;;;;;;;15.13;3.70;;;30.50;26.40;;;;;;5112320;28;20409;-69
2022/06/06 12:58:44;;;;;;;9.97;3.20;;;30.00;25.00;;;;;;5111441;28;20790;-70
2022/06/06 13:04:21;;;;;;;5.53;2.97;;;29.80;25.00;;;;;;5112023;28;20453;-70
2022/06/06 13:06:53;;;;;;;3.33;3.00;;;29.80;26.00;;;;;;5111484;28;20769;-71
2022/06/06 13:09:46;;;;;;;6.57;3.07;;;29.80;26.10;;;;;;5110804;28;20929;-69
2022/06/06 13:12:49;;;;;;;7.43;3.40;;;29.70;26.40;;;;;;5111764;28;20402;-71
2022/06/06 13:15:33;;;;;;;22.77;3.77;;;29.60;25.50;;;;;;5107190;28;20483;-71
2022/06/06 13:18:29;;;;;;;3.50;3.13;;;29.40;24.90;;;;;;5108752;28;20406;-71
2022/06/06 13:20:55;;;;;;;3.70;2.60;;;29.20;24.80;;;;;;5112211;28;20402;-72
2022/06/06 13:23:48;;;;;;;5.13;3.10;;;29.00;25.10;;;;;;5112003;28;20410;-71
2022/06/06 13:26:17;;;;;;;4.00;3.20;;;28.90;25.20;;;;;;5112281;28;20183;-71
2022/06/06 13:28:52;;;;;;;3.30;3.00;;;29.00;26.70;;;;;;5113980;28;20437;-72
2022/06/06 13:31:37;;;;;;;3.33;3.00;;;29.10;27.30;;;;;;5113461;28;20394;-71
2022/06/06 13:34:23;;;;;;;9.70;3.57;;;29.10;28.70;;;;;;5112073;28;20606;-71
2022/06/06 13:37:13;;;;;;;4.00;3.00;;;29.30;29.30;;;;;;5091927;28;20427;-71
2022/06/06 13:39:47;;;;;;;2.73;2.47;;;29.50;28.80;;;;;;5106325;28;20445;-72
2022/06/06 13:42:24;;;;;;;3.63;2.80;;;29.60;28.30;;;;;;5111478;28;20496;-72
2022/06/06 13:45:24;;;;;;;7.17;3.50;;;29.80;29.10;;;;;;5110622;28;20410;-72
2022/06/06 13:48:20;;;;;;;13.03;3.73;;;29.90;28.40;;;;;;5097919;28;20425;-71
2022/06/06 13:51:10;;;;;;;3.50;3.07;;;30.00;28.70;;;;;;5115744;28;20741;-71
2022/06/06 13:54:00;;;;;;;9.13;3.00;;;29.60;27.60;;;;;;5111844;28;20457;-71
2022/06/06 13:57:07;;;;;;;6.60;3.20;;;29.20;27.80;;;;;;5113605;28;20418;-71
2022/06/06 13:59:48;;;;;;;13.20;3.43;;;28.90;27.40;;;;;;5104508;28;20434;-71
2022/06/06 14:02:40;;;;;;;7.47;5.67;;;28.30;27.40;;;;;;5111201;28;20567;-71
2022/06/06 14:05:20;;;;;;;5.47;2.87;;;27.70;28.00;;;;;;5110402;28;20398;-71
2022/06/06 14:08:20;;;;;;;8.07;4.00;;;27.30;29.20;;;;;;5110484;28;20454;-71
2022/06/06 14:11:05;;;;;;;9.23;3.50;;;27.10;30.30;;;;;;5107594;28;20406;-71
2022/06/06 14:13:47;;;;;;;5.97;3.60;;;27.40;32.60;;;;;;5106705;28;20454;-69
2022/06/06 14:16:30;;;;;;;9.67;3.70;;;27.60;34.60;;;;;;5103710;28;20409;-70
2022/06/06 14:19:05;;;;;;;3.93;3.10;;;27.30;35.50;;;;;;5104140;28;20422;-71
2022/06/06 14:21:34;;;;;;;10.23;3.73;;;27.30;36.50;;;;;;5095401;28;20547;-71
2022/06/06 14:24:12;;;;;;;15.20;4.57;;;26.90;36.40;;;;;;5091875;28;20544;-71